Data for 04/27/2015

Time Sea-Level Adjusted Pressure Absolute Pressure Temperature Relative Humidity Dew Point   
(mb) (inHg) (mb) (inHg) (C) (F) (%) (C) (F)
00:05 1025 30.27 854 25.22 2.3 36.2 86 0.3 32.5
00:10 1025 30.27 854 25.22 2.3 36.1 87 0.2 32.4
00:15 1025 30.27 854 25.22 2.2 35.9 86 0.2 32.3
00:20 1025 30.27 854 25.22 2.2 35.9 87 0.2 32.3
00:25 1025 30.27 854 25.22 2.2 35.9 87 0.2 32.3
00:30 1025 30.27 854 25.22 2.1 35.8 87 0.2 32.4
00:35 1025 30.27 854 25.22 2.1 35.7 87 0.2 32.3
00:40 1025 30.27 854 25.22 2 35.6 88 0.2 32.3
00:45 1025 30.27 854 25.22 2 35.5 88 0.2 32.3
00:50 1025 30.27 854 25.22 1.9 35.5 88 0.1 32.2
00:55 1025 30.27 854 25.22 1.9 35.4 88 0 32.1
01:00 1025 30.27 854 25.22 1.8 35.3 88 0.1 32.1
01:05 1025 30.27 854 25.22 1.9 35.4 88 0.1 32.1
01:10 1025 30.27 854 25.22 1.8 35.3 88 0.1 32.2
01:15 1025 30.27 854 25.22 1.9 35.4 88 0.1 32.2
01:20 1025 30.27 854 25.22 1.9 35.4 88 0.1 32.2
01:25 1025 30.27 854 25.22 1.9 35.4 88 0.1 32.2
01:30 1025 30.27 854 25.22 1.9 35.4 88 0.1 32.1
01:35 1025 30.27 854 25.22 1.9 35.4 88 0 32.1
01:40 1025 30.27 854 25.22 1.9 35.4 88 0.1 32.2
01:45 1025 30.27 854 25.22 1.9 35.4 87 0 32
01:50 1025 30.27 854 25.22 1.9 35.4 87 -0.1 31.9
01:55 1025 30.27 854 25.22 1.8 35.3 87 -0.1 31.8
02:00 1025 30.27 854 25.22 1.8 35.2 87 -0.1 31.8
02:05 1025 30.27 855 25.25 1.7 35.1 88 -0.1 31.8
02:10 1025 30.27 855 25.25 1.6 34.9 88 -0.2 31.7
02:15 1025 30.27 855 25.25 1.6 34.9 88 -0.2 31.6
02:20 1026 30.3 855 25.25 1.6 34.8 88 -0.2 31.6
02:25 1026 30.3 855 25.25 1.5 34.7 88 -0.2 31.6
02:30 1026 30.3 855 25.25 1.5 34.7 89 -0.2 31.6
02:35 1026 30.3 855 25.25 1.5 34.7 89 -0.1 31.7
02:40 1026 30.3 855 25.25 1.5 34.7 89 -0.2 31.7
02:45 1026 30.3 855 25.25 1.5 34.6 89 -0.2 31.7
02:50 1026 30.3 855 25.25 1.4 34.5 89 -0.2 31.6
02:55 1026 30.3 855 25.25 1.4 34.5 89 -0.2 31.6
03:00 1026 30.3 855 25.25 1.4 34.4 89 -0.2 31.6
03:05 1026 30.3 855 25.25 1.4 34.5 89 -0.2 31.6
03:10 1026 30.3 855 25.25 1.3 34.3 89 -0.3 31.5
03:15 1026 30.3 855 25.25 1.2 34.2 89 -0.3 31.4
03:20 1026 30.3 855 25.25 1.2 34.1 90 -0.4 31.4
03:25 1026 30.3 855 25.25 1.1 33.9 90 -0.4 31.2
03:30 1026 30.3 855 25.25 1 33.7 90 -0.5 31.1
03:35 1026 30.3 855 25.25 0.9 33.6 91 -0.5 31.2
03:40 1026 30.3 855 25.25 0.8 33.4 92 -0.4 31.3
03:45 1026 30.3 855 25.25 0.8 33.4 92 -0.4 31.3
03:50 1026 30.3 855 25.25 0.7 33.3 92 -0.4 31.3
03:55 1026 30.3 855 25.25 0.7 33.3 92 -0.4 31.3
04:00 1026 30.3 855 25.25 0.7 33.3 93 -0.4 31.3
04:05 1026 30.3 855 25.25 0.6 33.1 93 -0.4 31.3
04:10 1026 30.3 855 25.25 0.6 33.1 93 -0.4 31.3
04:15 1026 30.3 855 25.25 0.6 33.2 93 -0.3 31.4
04:20 1026 30.3 855 25.25 0.7 33.2 93 -0.3 31.4
04:25 1026 30.3 855 25.25 0.6 33.2 93 -0.4 31.3
04:30 1026 30.3 855 25.25 0.6 33.2 93 -0.4 31.3
04:35 1026 30.3 855 25.25 0.6 33 93 -0.4 31.2
04:40 1026 30.3 855 25.25 0.5 32.9 93 -0.5 31.1
04:45 1026 30.3 855 25.25 0.4 32.8 93 -0.5 31.1
04:50 1026 30.3 855 25.25 0.4 32.7 93 -0.6 31
04:55 1026 30.3 855 25.25 0.4 32.7 94 -0.5 31.1
05:00 1026 30.3 855 25.25 0.5 32.8 94 -0.4 31.2
05:05 1026 30.3 856 25.28 0.5 32.9 94 -0.4 31.4
05:10 1026 30.3 856 25.28 0.6 33 94 -0.3 31.5
05:15 1027 30.33 856 25.28 0.6 33.1 94 -0.3 31.5
05:20 1027 30.33 856 25.28 0.7 33.3 93 -0.2 31.6
05:25 1027 30.33 856 25.28 0.8 33.5 93 -0.2 31.7
05:30 1027 30.33 856 25.28 0.9 33.6 93 -0.1 31.8
05:35 1027 30.33 856 25.28 1 33.8 92 -0.1 31.8
05:40 1027 30.33 856 25.28 0.9 33.6 92 -0.2 31.6
05:45 1027 30.33 856 25.28 0.7 33.3 93 -0.3 31.4
05:50 1027 30.33 856 25.28 0.7 33.2 93 -0.3 31.4
05:55 1027 30.33 856 25.28 0.7 33.3 93 -0.3 31.5
06:00 1027 30.33 856 25.28 0.7 33.3 93 -0.3 31.5
06:05 1027 30.33 856 25.28 0.7 33.2 93 -0.4 31.3
06:10 1027 30.33 856 25.28 0.7 33.2 93 -0.4 31.4
06:15 1027 30.33 856 25.28 0.9 33.6 93 -0.1 31.7
06:20 1027 30.33 856 25.28 1.2 34.2 92 0.1 32.1
06:25 1027 30.33 856 25.28 1.5 34.7 90 0.1 32.2
06:30 1027 30.33 856 25.28 2.2 35.9 86 -0 32
06:35 1027 30.33 856 25.28 2.5 36.5 84 0.1 32.1
06:40 1027 30.33 856 25.28 2.6 36.8 84 0.1 32.2
06:45 1027 30.33 856 25.28 2.8 37.1 83 0.2 32.3
06:50 1027 30.33 856 25.28 3.1 37.7 81 0.2 32.3
06:55 1027 30.33 856 25.28 3.4 38.2 79 0.1 32.2
07:00 1027 30.33 856 25.28 3.5 38.2 79 0.2 32.4
07:05 1027 30.33 856 25.28 3.6 38.5 80 0.5 32.9
07:10 1027 30.33 857 25.31 3.5 38.3 80 0.3 32.6
07:15 1027 30.33 857 25.31 3.3 38 81 0.3 32.5
07:20 1027 30.33 857 25.31 3.3 38 81 0.4 32.8
07:25 1027 30.33 857 25.31 3.4 38.1 80 0.3 32.6
07:30 1027 30.33 857 25.31 3.3 37.9 81 0.4 32.7
07:35 1027 30.33 857 25.31 3.2 37.7 81 0.2 32.4
07:40 1028 30.36 857 25.31 4.1 39.4 75 0 32
07:45 1028 30.36 857 25.31 4.9 40.8 74 0.6 33.1
07:50 1028 30.36 857 25.31 5.2 41.3 70 0.1 32.1
07:55 1028 30.36 857 25.31 5.3 41.6 66 -0.5 31.1
08:00 1028 30.36 857 25.31 4.5 40.1 68 -0.9 30.4
08:05 1028 30.36 857 25.31 4 39.2 73 -0.4 31.3
08:10 1028 30.36 857 25.31 4.9 40.8 69 -0.4 31.4
08:15 1028 30.36 857 25.31 6.3 43.3 66 0.5 32.9
08:20 1028 30.36 857 25.31 6.6 43.9 63 0.1 32.2
08:25 1028 30.36 857 25.31 6.6 43.8 65 0.5 32.9
08:30 1028 30.36 857 25.31 6 42.9 66 0.1 32.2
08:35 1028 30.36 857 25.31 6.2 43.2 64 -0.1 31.8
08:40 1028 30.36 857 25.31 6.7 44 60 -0.6 31
08:45 1028 30.36 857 25.31 6.8 44.3 62 0.1 32.2
08:50 1028 30.36 857 25.31 6.7 44 58 -0.9 30.3
08:55 1028 30.36 857 25.31 6.7 44.1 59 -0.8 30.6
09:00 1028 30.36 857 25.31 6.7 44 59 -0.8 30.5
09:05 1028 30.36 857 25.31 6 42.7 60 -1.2 29.8
09:10 1028 30.36 857 25.31 6.1 43 59 -1.4 29.5
09:15 1028 30.36 857 25.31 7 44.7 56 -1.1 30
09:20 1028 30.36 857 25.31 7.6 45.8 54 -1.1 30.1
09:25 1028 30.36 857 25.31 7.1 44.7 56 -1.1 30
09:30 1028 30.36 857 25.31 6.9 44.4 57 -1.2 29.9
09:35 1028 30.36 857 25.31 7.3 45.1 52 -1.9 28.5
09:40 1028 30.36 857 25.31 7.1 44.7 55 -1.4 29.4
09:45 1028 30.36 857 25.31 7.4 45.4 54 -1.2 29.8
09:50 1028 30.36 857 25.31 7.4 45.4 55 -1.1 30
09:55 1028 30.36 857 25.31 7.5 45.4 51 -1.9 28.5
10:00 1028 30.36 857 25.31 7.6 45.6 52 -1.6 29.2
10:05 1028 30.36 857 25.31 7.9 46.2 53 -1.1 30
10:10 1028 30.36 857 25.31 7.1 44.7 55 -1.3 29.6
10:15 1028 30.36 857 25.31 7.3 45.2 51 -2 28.4
10:20 1028 30.36 857 25.31 8.4 47.1 48 -1.9 28.6
10:25 1028 30.36 857 25.31 9 48.1 50 -1 30.3
10:30 1028 30.36 857 25.31 8.8 47.8 51 -0.9 30.4
10:35 1027 30.33 857 25.31 8.1 46.7 49 -1.9 28.6
10:40 1027 30.33 857 25.31 8.5 47.3 50 -1.2 29.8
10:45 1027 30.33 857 25.31 8.4 47.1 50 -1.5 29.4
10:50 1027 30.33 857 25.31 8.9 48.1 48 -1.6 29.2
10:55 1027 30.33 857 25.31 9 48.2 46 -2 28.4
11:00 1027 30.33 857 25.31 9.7 49.5 43 -2.2 28.1
11:05 1027 30.33 856 25.28 9.6 49.2 44 -1.9 28.6
11:10 1027 30.33 856 25.28 9 48.1 46 -1.9 28.6
11:15 1027 30.33 856 25.28 9 48.3 46 -2 28.3
11:20 1027 30.33 856 25.28 9.7 49.5 44 -2.1 28.3
11:25 1027 30.33 856 25.28 9.6 49.3 44 -1.9 28.7
11:30 1027 30.33 856 25.28 9.4 48.9 45 -1.9 28.6
11:35 1027 30.33 856 25.28 8.3 47 49 -1.8 28.7
11:40 1027 30.33 856 25.28 8.4 47.2 48 -2 28.3
11:45 1027 30.33 856 25.28 8.6 47.5 46 -2.3 27.9
11:50 1027 30.33 856 25.28 9.2 48.6 42 -2.9 26.8
11:55 1027 30.33 856 25.28 9.2 48.6 43 -2.5 27.4
12:00 1027 30.33 856 25.28 8.7 47.6 44 -2.9 26.8
12:05 1027 30.33 856 25.28 9.2 48.6 43 -2.7 27.1
12:10 1027 30.33 856 25.28 9.9 49.8 42 -2.3 27.8
12:15 1027 30.33 856 25.28 9.3 48.7 41 -3.1 26.4
12:20 1027 30.33 856 25.28 9.7 49.5 39 -3.6 25.5
12:25 1027 30.33 856 25.28 9.6 49.2 42 -2.7 27.1
12:30 1027 30.33 856 25.28 10.2 50.3 39 -3.2 26.3
12:35 1027 30.33 856 25.28 10.7 51.3 39 -2.7 27.1
12:40 1027 30.33 856 25.28 10.6 51.1 36 -3.6 25.5
12:45 1027 30.33 856 25.28 10.7 51.2 34 -4.5 24
12:50 1027 30.33 856 25.28 11.4 52.4 33 -4.2 24.5
12:55 1027 30.33 856 25.28 10.6 51 38 -3 26.6
13:00 1026 30.3 856 25.28 10.9 51.6 35 -4 24.8
13:05 1026 30.3 856 25.28 12.1 53.8 33 -3.4 25.8
13:10 1026 30.3 856 25.28 10.7 51.2 36 -3.7 25.3
13:15 1027 30.33 856 25.28 10.9 51.6 36 -3.4 25.8
13:20 1026 30.3 856 25.28 10.7 51.2 36 -3.6 25.5
13:25 1026 30.3 856 25.28 10.5 51 37 -3.7 25.4
13:30 1026 30.3 856 25.28 11.6 52.8 34 -3.7 25.4
13:35 1026 30.3 856 25.28 11.8 53.3 36 -2.8 26.9
13:40 1026 30.3 856 25.28 11.3 52.3 36 -3.1 26.5
13:45 1026 30.3 855 25.25 11.1 51.9 39 -2.5 27.5
13:50 1026 30.3 855 25.25 11 51.8 37 -3.1 26.4
13:55 1026 30.3 855 25.25 11.8 53.3 35 -2.9 26.7
14:00 1026 30.3 855 25.25 12.1 53.8 36 -2.6 27.3
14:05 1026 30.3 855 25.25 12.3 54.2 35 -2.6 27.4
14:10 1026 30.3 855 25.25 12.6 54.6 34 -3 26.6
14:15 1026 30.3 855 25.25 12.6 54.6 35 -2.3 27.8
14:20 1026 30.3 855 25.25 12.5 54.4 33 -3.2 26.2
14:25 1026 30.3 855 25.25 12.8 55 34 -2.7 27.1
14:30 1026 30.3 855 25.25 13.1 55.6 32 -3.1 26.4
14:35 1026 30.3 855 25.25 12.6 54.7 34 -2.6 27.3
14:40 1026 30.3 855 25.25 12.5 54.6 35 -2.4 27.6
14:45 1026 30.3 855 25.25 12.5 54.6 34 -2.9 26.7
14:50 1026 30.3 855 25.25 13.1 55.5 34 -2.5 27.5
14:55 1026 30.3 855 25.25 13.1 55.6 34 -2.3 27.8
15:00 1026 30.3 855 25.25 12.9 55.1 34 -2.4 27.6
15:05 1026 30.3 855 25.25 12.9 55.2 34 -2.6 27.3
15:10 1026 30.3 855 25.25 13.5 56.2 34 -2.1 28.1
15:15 1026 30.3 855 25.25 13.3 55.9 33 -2.5 27.5
15:20 1026 30.3 855 25.25 12.9 55.2 35 -2 28.4
15:25 1026 30.3 855 25.25 12.4 54.3 36 -2.4 27.7
15:30 1026 30.3 855 25.25 12.8 55.1 34 -2.7 27.1
15:35 1026 30.3 855 25.25 12.8 55.1 33 -3.1 26.5
15:40 1026 30.3 855 25.25 13.2 55.7 32 -2.9 26.7
15:45 1026 30.3 855 25.25 13.4 56 32 -2.9 26.7
15:50 1026 30.3 855 25.25 13.1 55.6 32 -3.2 26.2
15:55 1026 30.3 855 25.25 13.4 56 32 -2.9 26.8
16:00 1026 30.3 855 25.25 13.5 56.2 31 -3.1 26.4
16:05 1026 30.3 855 25.25 13.6 56.5 32 -2.7 27.2
16:10 1026 30.3 855 25.25 13.7 56.7 31 -3 26.5
16:15 1026 30.3 855 25.25 13.4 56.1 32 -3 26.6
16:20 1025 30.27 855 25.25 13.2 55.8 31 -3.6 25.5
16:25 1025 30.27 855 25.25 13.9 57.1 30 -3.1 26.4
16:30 1025 30.27 855 25.25 13.9 57 30 -3.2 26.3
16:35 1025 30.27 855 25.25 13.5 56.2 30 -3.6 25.5
16:40 1025 30.27 855 25.25 13.3 56 31 -3.3 26.1
16:45 1025 30.27 855 25.25 13.2 55.7 33 -2.8 26.9
16:50 1025 30.27 855 25.25 12.8 55 32 -3.3 26
16:55 1025 30.27 854 25.22 12.5 54.6 33 -3.3 26
17:00 1025 30.27 854 25.22 13 55.3 32 -3.2 26.3
17:05 1025 30.27 854 25.22 13.2 55.8 32 -3.2 26.3
17:10 1025 30.27 854 25.22 13.1 55.7 32 -3.3 26.1
17:15 1025 30.27 854 25.22 13.2 55.7 32 -3 26.7
17:20 1025 30.27 854 25.22 13.1 55.6 32 -3.3 26
17:25 1025 30.27 854 25.22 13.2 55.8 32 -3.1 26.5
17:30 1025 30.27 854 25.22 13.1 55.6 32 -3.2 26.3
17:35 1025 30.27 854 25.22 13.1 55.6 33 -2.7 27.1
17:40 1025 30.27 854 25.22 13.1 55.5 32 -3 26.6
17:45 1025 30.27 854 25.22 12.6 54.7 34 -2.7 27.2
17:50 1025 30.27 854 25.22 12.1 53.8 35 -2.9 26.8
17:55 1025 30.27 854 25.22 11.7 53 36 -2.9 26.8
18:00 1025 30.27 854 25.22 11.3 52.4 36 -3 26.6
18:05 1025 30.27 854 25.22 11.1 51.9 37 -3.2 26.3
18:10 1025 30.27 854 25.22 11.1 52 37 -3 26.5
18:15 1025 30.27 854 25.22 11.1 52 37 -3.1 26.4
18:20 1025 30.27 854 25.22 11.1 51.9 37 -3.1 26.3
18:25 1025 30.27 854 25.22 11.3 52.3 36 -3 26.5
18:30 1025 30.27 854 25.22 11.3 52.4 37 -2.7 27.1
18:35 1025 30.27 854 25.22 11.2 52.1 38 -2.6 27.3
18:40 1025 30.27 854 25.22 11.2 52.1 38 -2.7 27.1
18:45 1025 30.27 854 25.22 11 51.9 38 -2.8 27
18:50 1025 30.27 854 25.22 10.8 51.5 38 -2.8 27
18:55 1025 30.27 854 25.22 10.8 51.4 39 -2.6 27.2
19:00 1025 30.27 854 25.22 10.8 51.4 39 -2.7 27.1
19:05 1025 30.27 854 25.22 10.7 51.3 39 -2.6 27.3
19:10 1025 30.27 854 25.22 10.6 51.1 40 -2.4 27.7
19:15 1025 30.27 854 25.22 10.4 50.7 40 -2.5 27.5
19:20 1025 30.27 854 25.22 10.2 50.4 41 -2.5 27.6
19:25 1025 30.27 855 25.25 10.1 50.2 41 -2.4 27.7
19:30 1025 30.27 855 25.25 10 50.1 41 -2.5 27.5
19:35 1025 30.27 855 25.25 10 50 43 -2 28.4
19:40 1025 30.27 855 25.25 9.8 49.6 44 -1.8 28.7
19:45 1025 30.27 855 25.25 9.5 49.2 45 -1.8 28.7
19:50 1025 30.27 855 25.25 9.2 48.6 48 -1.3 29.7
19:55 1026 30.3 855 25.25 8.8 47.9 50 -0.9 30.4
20:00 1026 30.3 855 25.25 8.5 47.3 53 -0.6 31
20:05 1026 30.3 855 25.25 8.1 46.6 54 -0.6 30.9
20:10 1026 30.3 855 25.25 7.8 46 56 -0.5 31
20:15 1026 30.3 855 25.25 7.5 45.4 58 -0.2 31.7
20:20 1026 30.3 855 25.25 6.9 44.4 60 -0.2 31.6
20:25 1026 30.3 855 25.25 6.6 43.8 62 -0.3 31.5
20:30 1026 30.3 855 25.25 6.4 43.6 61 -0.4 31.2
20:35 1026 30.3 855 25.25 6.6 44 60 -0.5 31.1
20:40 1026 30.3 855 25.25 6.7 44.1 61 -0.4 31.4
20:45 1026 30.3 855 25.25 6.6 43.8 62 -0.2 31.6
20:50 1026 30.3 855 25.25 6.3 43.3 62 -0.4 31.3
20:55 1026 30.3 855 25.25 6.1 42.9 63 -0.5 31.1
21:00 1026 30.3 855 25.25 6 42.8 63 -0.5 31.2
21:05 1026 30.3 855 25.25 5.9 42.6 63 -0.5 31.1
21:10 1026 30.3 855 25.25 5.9 42.6 64 -0.5 31.1
21:15 1026 30.3 855 25.25 5.7 42.2 64 -0.5 31
21:20 1026 30.3 855 25.25 5.6 42 64 -0.8 30.6
21:25 1026 30.3 855 25.25 5.5 42 65 -0.6 30.9
21:30 1026 30.3 855 25.25 5.5 41.9 65 -0.6 30.8
21:35 1026 30.3 855 25.25 5.4 41.7 65 -0.6 30.8
21:40 1026 30.3 855 25.25 5.2 41.4 66 -0.6 31
21:45 1026 30.3 855 25.25 5.2 41.4 64 -1 30.1
21:50 1026 30.3 855 25.25 5.4 41.6 63 -1.1 30
21:55 1026 30.3 855 25.25 5.4 41.7 63 -1.1 29.9
22:00 1026 30.3 855 25.25 5.4 41.7 63 -1.2 29.9
22:05 1026 30.3 855 25.25 5.4 41.7 61 -1.5 29.3
22:10 1026 30.3 855 25.25 5.5 41.8 62 -1.1 29.9
22:15 1026 30.3 855 25.25 5.2 41.4 63 -1.2 29.8
22:20 1026 30.3 855 25.25 5.1 41.1 64 -1.1 30
22:25 1026 30.3 855 25.25 5 40.9 64 -1.2 29.8
22:30 1026 30.3 855 25.25 4.8 40.7 66 -1 30.1
22:35 1026 30.3 855 25.25 4.7 40.5 66 -1.1 30.1
22:40 1026 30.3 855 25.25 4.7 40.5 65 -1.3 29.6
22:45 1026 30.3 855 25.25 4.8 40.7 64 -1.3 29.7
22:50 1026 30.3 855 25.25 4.8 40.6 65 -1.2 29.8
22:55 1026 30.3 855 25.25 4.8 40.6 65 -1.2 29.8
23:00 1026 30.3 855 25.25 4.6 40.3 66 -1.1 30
23:05 1026 30.3 855 25.25 4.5 40.1 66 -1.3 29.7
23:10 1026 30.3 855 25.25 4.5 40.2 66 -1.2 29.8
23:15 1026 30.3 855 25.25 4.5 40.1 66 -1.3 29.7
23:20 1026 30.3 855 25.25 4.6 40.3 64 -1.7 29
23:25 1026 30.3 855 25.25 4.8 40.6 65 -1.3 29.7
23:30 1026 30.3 855 25.25 4.7 40.4 64 -1.5 29.2
23:35 1026 30.3 855 25.25 4.8 40.6 63 -1.6 29.2
23:40 1026 30.3 855 25.25 4.8 40.6 63 -1.6 29.1
23:45 1026 30.3 855 25.25 4.8 40.7 65 -1.2 29.8
23:50 1026 30.3 855 25.25 4.5 40 66 -1.2 29.8
23:55 1026 30.3 855 25.25 4.3 39.7 66 -1.4 29.4
24:00 1026 30.3 855 25.25 4.2 39.6 67 -1.4 29.4